Time;durP1;ratioP1;P1;durP2;ratioP2;P2;SDS_P1;SDS_P2;PMS_P1;PMS_P2;Temp;Humidity;BMP_temperature;BMP_pressure;BME280_temperature;BME280_humidity;BME280_pressure;Samples;Min_cycle;Max_cycle;Signal;HPM_P1;HPM_P2
2021/04/13 00:00:33;;;;;;;8.43;5.45;;;5.40;99.30;;;;;;4997319;28;20065;-79
2021/04/13 00:03:05;;;;;;;7.75;5.22;;;5.40;99.10;;;;;;4998226;28;20817;-77
2021/04/13 00:05:45;;;;;;;8.40;4.97;;;5.30;99.30;;;;;;4994787;28;20065;-78
2021/04/13 00:08:17;;;;;;;7.63;4.55;;;5.40;99.30;;;;;;4997265;28;20497;-79
2021/04/13 00:10:51;;;;;;;9.60;5.10;;;5.40;98.80;;;;;;4997646;28;20026;-76
2021/04/13 00:13:18;;;;;;;8.25;5.05;;;5.40;98.80;;;;;;4990550;28;20030;-78
2021/04/13 00:15:49;;;;;;;8.98;5.05;;;5.30;98.80;;;;;;4994905;28;20038;-76
2021/04/13 00:18:18;;;;;;;8.52;5.10;;;5.30;99.50;;;;;;4988396;28;20022;-77
2021/04/13 00:20:52;;;;;;;9.27;5.13;;;5.30;99.70;;;;;;4991163;28;20066;-79
2021/04/13 00:23:19;;;;;;;7.00;4.32;;;5.30;99.50;;;;;;4995558;28;20121;-78
2021/04/13 00:25:57;;;;;;;7.32;4.90;;;5.20;99.10;;;;;;4997539;28;20030;-78
2021/04/13 00:28:26;;;;;;;8.75;5.10;;;5.20;99.30;;;;;;4992657;28;20519;-76
2021/04/13 00:30:58;;;;;;;7.93;4.75;;;5.20;99.60;;;;;;4987553;28;20506;-76
2021/04/13 00:33:33;;;;;;;7.55;4.28;;;5.20;99.20;;;;;;4989640;28;20030;-77
2021/04/13 00:36:13;;;;;;;7.40;4.72;;;5.20;99.10;;;;;;4989142;28;20042;-78
2021/04/13 00:38:49;;;;;;;8.30;5.13;;;5.20;99.30;;;;;;4994636;28;20110;-78
2021/04/13 00:41:15;;;;;;;7.47;4.53;;;;;;;;;;4990793;28;20049;-77
2021/04/13 00:44:03;;;;;;;9.85;5.18;;;5.20;98.90;;;;;;4989172;28;20046;-77
2021/04/13 00:46:37;;;;;;;7.00;4.68;;;5.20;99.30;;;;;;4996758;28;20031;-78
2021/04/13 00:49:04;;;;;;;7.82;5.20;;;5.30;99.00;;;;;;4995952;28;20026;-78
2021/04/13 00:51:34;;;;;;;7.35;5.05;;;5.30;98.90;;;;;;4994222;28;20045;-78
2021/04/13 00:54:08;;;;;;;7.95;5.25;;;5.30;99.10;;;;;;4995604;28;20034;-75
2021/04/13 00:56:35;;;;;;;10.35;5.80;;;5.30;98.90;;;;;;4993032;28;20034;-76
2021/04/13 00:59:17;;;;;;;7.68;5.43;;;5.30;98.60;;;;;;4998557;28;20030;-76
2021/04/13 01:02:02;;;;;;;8.88;5.80;;;5.30;98.70;;;;;;4994099;28;20035;-79
2021/04/13 01:04:44;;;;;;;9.98;6.55;;;5.30;99.10;;;;;;4995955;28;20100;-76
2021/04/13 01:07:14;;;;;;;9.27;6.43;;;5.30;98.70;;;;;;4987686;28;20489;-77
2021/04/13 01:09:51;;;;;;;8.93;5.85;;;7.40;99.70;;;;;;4999268;28;20022;-78
2021/04/13 01:12:28;;;;;;;8.35;5.88;;;5.30;99.10;;;;;;4997034;28;20022;-78
2021/04/13 01:14:55;;;;;;;9.82;6.18;;;5.30;98.50;;;;;;4997473;28;20069;-78
2021/04/13 01:17:23;;;;;;;9.40;6.28;;;5.20;98.80;;;;;;4999393;28;20053;-77
2021/04/13 01:20:36;;;;;;;10.27;6.18;;;5.30;98.40;;;;;;4994206;28;20088;-78
2021/04/13 01:23:07;;;;;;;10.02;6.47;;;5.30;98.50;;;;;;4923250;29;20067;-79
2021/04/13 01:25:46;;;;;;;;;;;5.30;98.60;;;;;;4926773;29;20407;-77
2021/04/13 01:28:18;;;;;;;9.32;6.25;;;5.30;98.20;;;;;;4965741;28;20327;-79
2021/04/13 01:30:47;;;;;;;10.20;6.13;;;5.30;98.40;;;;;;5010620;28;20117;-80
2021/04/13 01:33:21;;;;;;;8.40;6.22;;;5.30;97.90;;;;;;4992179;28;20030;-78
2021/04/13 01:35:52;;;;;;;10.10;6.03;;;5.30;98.10;;;;;;4991940;28;20026;-78
2021/04/13 01:43:21;;;;;;;9.23;6.03;;;5.00;98.30;;;;;;4996499;28;20084;-76
2021/04/13 01:45:48;;;;;;;9.98;5.93;;;5.00;98.50;;;;;;4996187;28;20026;-77
2021/04/13 01:48:16;;;;;;;7.97;5.50;;;5.00;98.60;;;;;;4988945;28;20035;-77
2021/04/13 01:50:44;;;;;;;8.23;6.05;;;5.00;98.80;;;;;;4984464;28;20045;-76
2021/04/13 01:53:11;;;;;;;9.32;6.85;;;5.10;98.40;;;;;;4987581;28;20030;-78
2021/04/13 01:55:46;;;;;;;8.90;6.15;;;5.10;98.30;;;;;;4988876;28;20026;-78
2021/04/13 01:58:24;;;;;;;10.43;6.53;;;5.10;98.30;;;;;;4987103;28;20382;-79
2021/04/13 02:01:01;;;;;;;9.70;6.10;;;5.10;98.20;;;;;;5006760;28;20034;-78
2021/04/13 02:03:38;;;;;;;11.30;6.07;;;5.10;98.20;;;;;;4986971;28;20041;-78
2021/04/13 02:06:12;;;;;;;10.45;6.40;;;5.10;98.80;;;;;;5006432;28;20518;-78
2021/04/13 02:08:44;;;;;;;7.93;5.75;;;5.10;98.90;;;;;;4989920;28;20088;-75
2021/04/13 02:11:19;;;;;;;9.23;6.85;;;5.10;98.70;;;;;;4990322;28;20042;-78
2021/04/13 02:14:01;;;;;;;8.35;6.30;;;5.00;98.70;;;;;;5002211;28;20113;-78
2021/04/13 02:16:41;;;;;;;8.77;6.28;;;5.10;98.70;;;;;;5006041;28;20038;-76
2021/04/13 02:19:10;;;;;;;9.82;6.50;;;5.10;98.70;;;;;;4992525;28;20413;-75
2021/04/13 02:21:41;;;;;;;8.73;6.40;;;5.10;98.70;;;;;;4990503;28;20050;-76
2021/04/13 02:24:20;;;;;;;11.18;6.47;;;5.10;98.90;;;;;;4992230;28;20026;-77
2021/04/13 02:26:53;;;;;;;9.32;6.20;;;5.10;99.10;;;;;;4991286;28;20026;-77
2021/04/13 02:29:23;;;;;;;9.45;6.70;;;5.00;98.90;;;;;;4974869;28;20022;-78
2021/04/13 02:31:58;;;;;;;8.77;6.45;;;5.00;99.20;;;;;;4987708;28;20034;-77
2021/04/13 02:34:34;;;;;;;12.63;6.70;;;5.00;99.40;;;;;;5007586;28;20033;-77
2021/04/13 02:37:06;;;;;;;11.35;6.72;;;4.90;99.70;;;;;;4993298;28;20277;-77
2021/04/13 02:39:33;;;;;;;10.93;6.57;;;4.80;99.80;;;;;;4984989;28;20325;-78
2021/04/13 02:42:20;;;;;;;8.77;6.90;;;4.80;99.90;;;;;;4986228;28;20122;-77
2021/04/13 02:45:01;;;;;;;10.20;7.40;;;4.80;99.90;;;;;;4985380;28;20610;-77
2021/04/13 02:47:28;;;;;;;9.98;6.30;;;4.80;99.90;;;;;;4981526;28;20030;-77
2021/04/13 02:50:05;;;;;;;12.68;7.43;;;4.80;99.90;;;;;;4983271;28;20397;-78
2021/04/13 02:52:35;;;;;;;11.52;7.10;;;4.80;99.90;;;;;;4985756;28;21437;-80
2021/04/13 02:55:05;;;;;;;10.98;7.78;;;4.70;99.90;;;;;;4990640;28;20113;-79
2021/04/13 02:57:44;;;;;;;13.25;7.28;;;4.70;99.90;;;;;;4990436;28;20037;-79
2021/04/13 03:00:33;;;;;;;14.45;8.38;;;5.60;99.90;;;;;;4985163;28;20038;-76
2021/04/13 03:03:16;;;;;;;12.75;8.45;;;4.70;99.90;;;;;;5001687;28;20790;-77
2021/04/13 03:05:42;;;;;;;11.50;7.85;;;4.60;99.90;;;;;;4986367;28;20132;-77
2021/04/13 03:08:14;;;;;;;12.20;8.30;;;4.60;99.90;;;;;;5006506;28;20030;-77
2021/04/13 03:10:51;;;;;;;16.08;8.48;;;4.60;99.90;;;;;;4992549;28;20077;-77
2021/04/13 03:13:31;;;;;;;13.18;8.25;;;4.60;99.90;;;;;;4997808;28;20026;-76
2021/04/13 03:15:58;;;;;;;11.23;8.00;;;4.50;99.90;;;;;;4995017;28;20023;-77
2021/04/13 03:18:28;;;;;;;12.20;8.18;;;4.50;99.90;;;;;;4989474;28;20509;-77
2021/04/13 03:21:00;;;;;;;10.75;7.70;;;4.50;99.90;;;;;;4988548;28;20041;-79
2021/04/13 03:23:30;;;;;;;11.98;7.95;;;4.70;99.90;;;;;;4986934;28;20073;-75
2021/04/13 03:26:03;;;;;;;12.85;8.23;;;4.50;99.90;;;;;;4979670;28;20164;-78
2021/04/13 03:28:39;;;;;;;9.57;7.20;;;4.50;99.90;;;;;;4992346;28;20033;-76
2021/04/13 03:31:06;;;;;;;11.43;7.93;;;4.50;99.90;;;;;;4988374;28;20025;-76
2021/04/13 03:33:33;;;;;;;14.27;8.43;;;4.50;99.90;;;;;;4986474;28;21065;-77
2021/04/13 03:36:25;;;;;;;13.23;8.23;;;4.60;99.90;;;;;;4992057;28;20029;-78
2021/04/13 03:39:02;;;;;;;13.63;8.70;;;4.60;99.90;;;;;;4975957;28;20050;-77
2021/04/13 03:41:29;;;;;;;13.43;9.10;;;4.60;99.90;;;;;;4989045;28;20082;-78
2021/04/13 03:44:03;;;;;;;12.73;8.77;;;4.60;99.90;;;;;;4989691;28;20452;-78
2021/04/13 03:46:34;;;;;;;13.32;9.10;;;4.60;99.90;;;;;;4985936;28;20026;-76
2021/04/13 03:49:01;;;;;;;12.68;8.82;;;4.60;99.90;;;;;;4992357;28;20093;-78
2021/04/13 03:51:33;;;;;;;13.35;8.25;;;4.40;99.90;;;;;;4988897;28;20098;-79
2021/04/13 03:53:59;;;;;;;12.30;7.95;;;;;;;;;;4986722;28;20370;-78
2021/04/13 03:56:28;;;;;;;11.52;8.00;;;4.30;99.90;;;;;;4991513;28;20038;-78
2021/04/13 03:58:58;;;;;;;13.90;8.27;;;4.40;99.90;;;;;;4992870;28;20607;-77
2021/04/13 04:01:34;;;;;;;12.23;8.48;;;4.30;99.90;;;;;;4987793;28;20027;-79
2021/04/13 04:04:02;;;;;;;13.50;8.32;;;4.30;99.90;;;;;;4984727;28;20034;-79
2021/04/13 04:06:46;;;;;;;14.98;9.40;;;4.20;99.90;;;;;;4989186;28;20046;-76
2021/04/13 04:09:36;;;;;;;11.43;8.45;;;4.20;99.90;;;;;;4986955;28;20031;-77
2021/04/13 04:12:14;;;;;;;13.65;8.82;;;4.20;99.90;;;;;;4986364;28;20462;-76
2021/04/13 04:14:39;;;;;;;14.15;9.90;;;4.20;99.90;;;;;;5006617;28;20194;-77
2021/04/13 04:17:15;;;;;;;14.65;9.48;;;4.10;99.90;;;;;;4983253;28;20552;-78
2021/04/13 04:19:57;;;;;;;13.85;8.98;;;4.10;99.90;;;;;;4989256;28;20037;-77
2021/04/13 04:22:24;;;;;;;13.90;9.18;;;4.10;99.90;;;;;;5001752;28;20430;-77
2021/04/13 04:24:53;;;;;;;13.38;8.80;;;4.10;99.90;;;;;;4990481;28;20070;-77
2021/04/13 04:27:36;;;;;;;12.75;8.68;;;4.10;99.90;;;;;;4988774;28;20039;-76
2021/04/13 04:30:24;;;;;;;12.07;8.05;;;4.10;99.90;;;;;;4991117;28;20037;-75
2021/04/13 04:32:50;;;;;;;14.63;8.43;;;4.10;99.90;;;;;;4966484;28;20181;-76
2021/04/13 04:35:40;;;;;;;13.68;8.60;;;4.10;99.90;;;;;;4990489;28;20069;-78
2021/04/13 04:38:23;;;;;;;12.43;8.77;;;4.10;99.90;;;;;;4993768;28;20365;-78
2021/04/13 04:40:52;;;;;;;13.00;8.48;;;4.10;99.90;;;;;;4994914;28;20034;-77
2021/04/13 04:43:21;;;;;;;13.82;8.35;;;4.10;99.90;;;;;;4988996;28;20122;-75
2021/04/13 04:45:48;;;;;;;12.43;8.65;;;4.00;99.90;;;;;;4997111;28;20038;-77
2021/04/13 04:48:38;;;;;;;11.95;8.55;;;4.00;99.90;;;;;;4977066;28;20373;-77
2021/04/13 04:51:11;;;;;;;13.38;8.88;;;4.00;99.90;;;;;;4983257;28;20038;-77
2021/04/13 04:53:39;;;;;;;14.05;8.52;;;3.90;99.90;;;;;;4992901;28;20038;-77
2021/04/13 04:56:07;;;;;;;14.02;8.90;;;3.80;99.90;;;;;;4996374;28;20090;-77
2021/04/13 04:58:32;;;;;;;12.70;8.27;;;3.80;99.90;;;;;;4996549;28;20026;-81
2021/04/13 05:01:01;;;;;;;17.13;9.02;;;3.90;99.90;;;;;;4995419;28;20049;-78
2021/04/13 05:03:28;;;;;;;16.52;9.55;;;3.80;99.90;;;;;;4991598;28;20408;-76
2021/04/13 05:05:55;;;;;;;15.75;9.57;;;3.80;99.90;;;;;;5009999;28;20101;-78
2021/04/13 05:08:22;;;;;;;17.17;9.77;;;3.80;99.90;;;;;;4991163;28;20092;-80
2021/04/13 05:10:50;;;;;;;14.90;9.23;;;3.70;99.90;;;;;;4983998;28;20037;-78
2021/04/13 05:13:17;;;;;;;13.15;9.65;;;3.70;99.90;;;;;;4993535;28;20026;-78
2021/04/13 05:15:42;;;;;;;14.32;9.32;;;3.70;99.90;;;;;;4996355;28;20031;-79
2021/04/13 05:18:08;;;;;;;15.57;10.18;;;3.70;99.90;;;;;;4995369;28;20030;-77
2021/04/13 05:20:34;;;;;;;15.70;9.38;;;;;;;;;;4995835;28;20026;-77
2021/04/13 05:23:00;;;;;;;15.40;9.88;;;;;;;;;;4996798;28;20026;-80
2021/04/13 05:25:27;;;;;;;14.00;9.35;;;;;;;;;;4993933;28;20027;-77
2021/04/13 05:27:52;;;;;;;15.10;9.82;;;3.60;99.90;;;;;;4994161;28;20402;-78
2021/04/13 05:30:20;;;;;;;16.75;9.77;;;3.60;99.90;;;;;;4990420;28;20054;-77
2021/04/13 05:32:46;;;;;;;15.30;9.77;;;3.60;99.90;;;;;;4993920;28;20059;-76
2021/04/13 05:35:12;;;;;;;15.80;10.02;;;3.60;99.90;;;;;;4991906;28;20026;-76
2021/04/13 05:37:38;;;;;;;16.77;10.35;;;3.60;99.90;;;;;;4992540;28;20660;-78
2021/04/13 05:40:09;;;;;;;14.20;9.82;;;5.10;99.90;;;;;;4994345;28;20057;-77
2021/04/13 05:42:35;;;;;;;15.73;10.30;;;3.60;99.90;;;;;;5007774;28;20082;-76
2021/04/13 05:45:03;;;;;;;16.80;10.88;;;3.60;99.90;;;;;;4989696;28;20493;-77
2021/04/13 05:47:32;;;;;;;15.77;10.93;;;3.10;99.90;;;;;;4996361;28;20297;-78
2021/04/13 05:50:05;;;;;;;15.00;9.77;;;3.80;99.90;;;;;;4997178;28;20030;-77
2021/04/13 05:52:30;;;;;;;15.85;10.15;;;3.80;99.90;;;;;;4990380;28;20033;-79
2021/04/13 05:54:56;;;;;;;16.60;9.98;;;3.80;99.90;;;;;;4992561;28;20026;-79
2021/04/13 05:57:28;;;;;;;16.63;10.25;;;3.90;99.90;;;;;;4994969;28;20034;-78
2021/04/13 05:59:56;;;;;;;19.80;10.07;;;4.00;99.90;;;;;;4993496;28;20035;-78
2021/04/13 06:02:22;;;;;;;13.95;9.77;;;3.90;99.90;;;;;;4988032;28;20038;-79
2021/04/13 06:04:54;;;;;;;14.93;9.73;;;4.00;99.90;;;;;;4990139;28;20097;-77
2021/04/13 06:07:20;;;;;;;17.75;9.63;;;4.00;99.90;;;;;;4994027;28;20065;-78
2021/04/13 06:09:49;;;;;;;18.33;10.10;;;4.10;99.90;;;;;;4990470;28;20031;-75
2021/04/13 06:12:21;;;;;;;17.17;10.40;;;4.10;99.90;;;;;;4991289;28;20133;-77
2021/04/13 06:14:49;;;;;;;14.95;10.18;;;;;;;;;;4987513;28;20023;-78
2021/04/13 06:17:15;;;;;;;15.45;10.82;;;;;;;;;;4986804;28;20046;-77
2021/04/13 06:19:41;;;;;;;15.73;10.55;;;4.00;99.90;;;;;;5010409;28;20132;-81
2021/04/13 06:22:06;;;;;;;15.27;9.70;;;4.10;99.90;;;;;;4991116;28;20034;-78
2021/04/13 06:24:32;;;;;;;15.65;9.52;;;;;;;;;;4993121;28;20027;-78
2021/04/13 06:26:58;;;;;;;16.23;9.95;;;4.40;99.90;;;;;;4990196;28;20042;-79
2021/04/13 06:29:23;;;;;;;18.13;11.05;;;4.50;99.90;;;;;;4990168;28;20022;-78
2021/04/13 06:31:49;;;;;;;16.27;10.13;;;;;;;;;;4987940;28;20034;-76
2021/04/13 06:34:15;;;;;;;18.88;11.40;;;;;;;;;;4991557;28;20045;-76
2021/04/13 06:36:41;;;;;;;18.92;10.70;;;4.80;99.70;;;;;;4991457;28;20037;-79
2021/04/13 06:39:08;;;;;;;14.85;10.35;;;4.90;98.60;;;;;;4982638;28;20045;-79
2021/04/13 06:41:58;;;;;;;19.05;10.73;;;5.10;97.80;;;;;;4979698;28;20050;-78
2021/04/13 06:44:41;;;;;;;18.40;10.50;;;5.10;98.00;;;;;;4985259;28;20030;-78
2021/04/13 06:47:13;;;;;;;21.05;10.23;;;5.30;96.20;;;;;;4986646;28;20452;-79
2021/04/13 06:49:54;;;;;;;17.80;10.00;;;5.50;95.70;;;;;;5009712;28;20035;-76
2021/04/13 06:52:20;;;;;;;16.27;10.15;;;;;;;;;;4995079;28;20086;-78
2021/04/13 06:55:10;;;;;;;15.95;10.30;;;5.80;94.30;;;;;;4995964;28;20022;-77
2021/04/13 06:58:05;;;;;;;16.17;9.27;;;5.90;93.60;;;;;;4993049;28;20038;-77
2021/04/13 07:01:02;;;;;;;14.55;8.73;;;6.00;93.10;;;;;;4985319;28;20038;-78
2021/04/13 07:03:32;;;;;;;16.23;10.70;;;6.00;92.80;;;;;;4986063;28;20034;-77
2021/04/13 07:06:22;;;;;;;16.13;10.15;;;6.00;92.80;;;;;;4993721;28;20033;-79
2021/04/13 07:09:02;;;;;;;15.32;9.82;;;6.00;92.80;;;;;;5008050;28;20038;-76
2021/04/13 07:11:58;;;;;;;14.95;9.07;;;6.20;91.80;;;;;;4992192;28;20027;-77
2021/04/13 07:14:56;;;;;;;16.60;9.32;;;6.10;91.70;;;;;;4980384;28;20102;-79
2021/04/13 07:17:51;;;;;;;15.75;9.40;;;6.20;91.70;;;;;;4993941;28;20045;-75
2021/04/13 07:20:31;;;;;;;14.15;8.75;;;6.30;91.80;;;;;;4995226;28;20078;-77
2021/04/13 07:23:23;;;;;;;14.38;8.52;;;6.40;91.40;;;;;;4995504;28;20121;-77
2021/04/13 07:25:57;;;;;;;15.55;9.20;;;6.50;91.30;;;;;;4995960;28;20128;-77
2021/04/13 07:28:33;;;;;;;17.13;9.32;;;6.60;90.40;;;;;;4988549;28;20030;-77
2021/04/13 07:31:03;;;;;;;15.60;9.15;;;6.60;90.30;;;;;;4998155;28;20064;-77
2021/04/13 07:33:30;;;;;;;18.27;10.35;;;;;;;;;;4995410;28;20038;-77
2021/04/13 07:36:02;;;;;;;18.58;9.60;;;6.80;90.40;;;;;;4992000;28;20030;-77
2021/04/13 07:38:37;;;;;;;16.52;10.32;;;7.00;88.30;;;;;;4995343;28;20049;-78
2021/04/13 07:41:09;;;;;;;17.35;9.48;;;7.10;86.90;;;;;;4997404;28;20038;-79
2021/04/13 07:43:47;;;;;;;16.10;9.98;;;7.20;86.90;;;;;;4997043;28;20034;-79
2021/04/13 07:46:38;;;;;;;14.85;10.40;;;7.20;84.70;;;;;;4996149;28;20509;-77
2021/04/13 07:49:13;;;;;;;16.40;10.52;;;7.40;85.10;;;;;;4992012;28;20158;-78
2021/04/13 07:51:55;;;;;;;15.88;10.07;;;7.40;82.70;;;;;;4994121;28;20045;-77
2021/04/13 07:54:45;;;;;;;15.65;9.98;;;7.40;81.10;;;;;;4996130;28;20033;-78
2021/04/13 07:57:40;;;;;;;15.43;10.32;;;7.50;79.40;;;;;;4996879;28;20193;-76
2021/04/13 08:00:09;;;;;;;16.70;10.48;;;7.50;77.90;;;;;;4988454;28;20038;-81
2021/04/13 08:02:36;;;;;;;15.30;10.40;;;7.60;78.70;;;;;;4995888;28;20117;-77
2021/04/13 08:05:05;;;;;;;15.40;10.88;;;7.80;76.10;;;;;;4989363;28;20042;-78
2021/04/13 08:07:35;;;;;;;17.48;10.75;;;7.70;76.10;;;;;;4995302;28;20030;-78
2021/04/13 08:10:12;;;;;;;16.90;10.88;;;8.30;75.20;;;;;;4991910;28;20544;-76
2021/04/13 08:12:54;;;;;;;15.20;10.30;;;7.90;74.50;;;;;;4989914;28;20030;-77
2021/04/13 08:15:44;;;;;;;19.38;11.13;;;7.80;73.30;;;;;;4990334;28;21087;-81
2021/04/13 08:18:36;;;;;;;18.02;10.45;;;8.10;71.20;;;;;;4987646;28;20157;-78
2021/04/13 08:21:32;;;;;;;16.85;10.60;;;8.50;68.90;;;;;;4969513;28;20049;-79
2021/04/13 08:23:58;;;;;;;15.20;9.70;;;8.40;68.60;;;;;;4969995;28;20106;-76
2021/04/13 08:26:32;;;;;;;15.45;10.20;;;10.50;69.10;;;;;;4978598;28;20105;-78
2021/04/13 08:29:14;;;;;;;14.13;9.70;;;8.40;65.80;;;;;;5000762;28;20034;-79
2021/04/13 08:35:11;;;;;;;15.40;10.80;;;8.50;63.90;;;;;;4989653;28;20036;-83
2021/04/13 08:37:50;;;;;;;16.25;9.50;;;8.70;61.70;;;;;;4983589;28;20034;-78
2021/04/13 08:40:35;;;;;;;19.02;10.88;;;9.80;63.00;;;;;;4983089;28;20061;-78
2021/04/13 08:43:07;;;;;;;17.10;10.88;;;8.70;62.60;;;;;;4986082;28;20022;-78
2021/04/13 08:46:26;;;;;;;14.38;10.63;;;9.80;63.20;;;;;;4982592;28;20045;-77
2021/04/13 08:49:30;;;;;;;13.57;9.82;;;9.10;62.50;;;;;;4984136;28;20062;-76
2021/04/13 08:52:15;;;;;;;16.27;9.90;;;8.70;62.40;;;;;;4983152;28;20049;-78
2021/04/13 08:54:44;;;;;;;12.95;9.23;;;8.70;62.30;;;;;;4981814;28;20662;-80
2021/04/13 08:57:22;;;;;;;13.05;9.68;;;10.80;60.50;;;;;;4986536;28;20117;-77
2021/04/13 08:59:52;;;;;;;13.02;8.05;;;10.10;62.20;;;;;;4988034;28;20061;-77
2021/04/13 09:02:34;;;;;;;10.83;7.67;;;7.90;58.00;;;;;;4995995;28;20027;-76
2021/04/13 09:05:11;;;;;;;10.50;7.22;;;8.60;58.00;;;;;;4990606;28;20301;-76
2021/04/13 09:07:50;;;;;;;11.80;8.02;;;8.60;56.60;;;;;;5002515;28;20026;-78
2021/04/13 09:10:40;;;;;;;9.90;7.78;;;8.40;57.40;;;;;;4991207;28;20118;-77
2021/04/13 09:13:23;;;;;;;12.40;8.52;;;8.50;56.90;;;;;;4999772;28;20037;-77
2021/04/13 09:16:07;;;;;;;11.43;7.90;;;8.60;56.10;;;;;;4986011;28;20054;-79
2021/04/13 09:18:50;;;;;;;11.43;8.93;;;8.50;57.30;;;;;;5001276;28;20098;-78
2021/04/13 09:21:25;;;;;;;12.02;8.57;;;8.60;57.10;;;;;;4992224;28;20026;-79
2021/04/13 09:24:21;;;;;;;14.20;8.82;;;8.60;56.60;;;;;;5001086;28;20034;-78
2021/04/13 09:26:56;;;;;;;12.48;8.20;;;8.50;57.20;;;;;;4986583;28;20031;-76
2021/04/13 09:29:37;;;;;;;11.13;8.45;;;8.70;56.60;;;;;;4994055;28;20022;-77
2021/04/13 09:32:23;;;;;;;10.50;7.95;;;8.80;54.40;;;;;;4995852;28;20030;-76
2021/04/13 09:35:13;;;;;;;13.00;8.90;;;8.80;54.80;;;;;;4982625;28;20033;-76
2021/04/13 09:37:57;;;;;;;12.93;8.13;;;8.60;55.60;;;;;;4981807;28;20114;-77
2021/04/13 09:40:26;;;;;;;11.80;8.55;;;8.60;55.50;;;;;;4980416;28;20034;-76
2021/04/13 09:43:13;;;;;;;11.82;8.63;;;8.70;55.70;;;;;;4977864;28;20473;-77
2021/04/13 09:46:00;;;;;;;11.70;8.23;;;9.00;55.50;;;;;;4979769;28;20037;-75
2021/04/13 09:48:47;;;;;;;9.00;6.45;;;9.00;55.70;;;;;;4981868;28;20085;-76
2021/04/13 09:51:23;;;;;;;8.82;6.50;;;8.80;50.60;;;;;;5003590;28;20559;-78
2021/04/13 09:53:59;;;;;;;8.80;6.60;;;8.70;49.80;;;;;;4991275;28;20073;-77
2021/04/13 09:56:52;;;;;;;10.52;7.03;;;8.80;49.30;;;;;;4987751;28;20034;-78
2021/04/13 09:59:40;;;;;;;9.40;6.50;;;9.20;48.00;;;;;;4984219;28;20026;-79
2021/04/13 10:02:52;;;;;;;7.82;5.90;;;9.20;48.00;;;;;;5004899;28;20040;-81
2021/04/13 10:05:35;;;;;;;7.25;4.72;;;9.00;45.50;;;;;;4995748;28;20687;-79
2021/04/13 10:08:16;;;;;;;6.82;4.95;;;9.00;44.30;;;;;;4993511;28;20130;-77
2021/04/13 10:10:42;;;;;;;;;;;8.90;45.20;;;;;;4978347;28;20068;-79
2021/04/13 10:13:26;;;;;;;9.48;6.93;;;8.70;48.00;;;;;;4979187;28;19909;-77
2021/04/13 10:16:27;;;;;;;10.52;6.70;;;8.90;49.20;;;;;;4978199;28;20019;-77
2021/04/13 10:19:11;;;;;;;;;;;9.30;47.10;;;;;;4975432;28;20022;-77
2021/04/13 10:22:14;;;;;;;8.98;5.32;;;10.10;47.20;;;;;;4980540;28;19922;-77
2021/04/13 10:25:03;;;;;;;7.85;5.20;;;10.30;44.10;;;;;;4983760;28;20034;-75
2021/04/13 10:27:29;;;;;;;9.30;5.60;;;;;;;;;;4965969;28;20498;-75
2021/04/13 10:30:43;;;;;;;7.40;5.28;;;10.20;42.70;;;;;;4982244;28;20122;-75
2021/04/13 10:33:37;;;;;;;8.18;5.03;;;10.30;43.50;;;;;;4971494;28;20044;-75
2021/04/13 10:36:16;;;;;;;8.75;5.95;;;10.50;42.30;;;;;;4968136;28;20093;-74
2021/04/13 10:39:27;;;;;;;7.82;5.57;;;10.40;43.50;;;;;;4975719;28;20034;-76
2021/04/13 10:42:11;;;;;;;9.80;5.75;;;10.40;43.80;;;;;;4948175;28;20035;-76
2021/04/13 10:44:48;;;;;;;9.55;5.88;;;10.40;44.40;;;;;;4977046;28;20038;-76
2021/04/13 10:47:57;;;;;;;8.70;4.90;;;10.50;44.90;;;;;;4975029;28;20049;-75
2021/04/13 10:51:01;;;;;;;9.27;5.50;;;10.80;46.40;;;;;;4977190;28;20288;-76
2021/04/13 10:53:27;;;;;;;7.30;5.25;;;;;;;;;;4885940;29;20095;-73
2021/04/13 10:55:53;;;;;;;16.02;7.35;;;;;;;;;;4962489;28;20133;-80
2021/04/13 10:58:55;;;;;;;7.53;4.75;;;11.50;40.60;;;;;;4975381;28;20436;-78
2021/04/13 11:01:39;;;;;;;7.20;4.80;;;11.80;39.00;;;;;;4972578;28;20105;-77
2021/04/13 11:04:20;;;;;;;9.40;5.30;;;10.30;37.80;;;;;;4973760;28;20049;-82
2021/04/13 11:07:19;;;;;;;7.60;5.05;;;13.60;40.00;;;;;;4975921;28;20040;-76
2021/04/13 11:10:22;;;;;;;7.65;5.65;;;12.20;39.00;;;;;;4982740;28;20026;-76
2021/04/13 11:13:19;;;;;;;7.35;5.15;;;12.00;40.00;;;;;;4970319;28;20118;-80
2021/04/13 11:16:04;;;;;;;9.95;6.43;;;11.80;39.90;;;;;;4972412;28;20481;-76
2021/04/13 11:19:07;;;;;;;9.57;6.20;;;11.60;41.60;;;;;;4982799;28;20030;-75
2021/04/13 11:22:11;;;;;;;7.65;5.40;;;11.00;41.20;;;;;;4987436;28;20034;-76
2021/04/13 11:24:37;;;;;;;8.38;5.43;;;;;;;;;;4976165;28;20061;-81
2021/04/13 11:27:19;;;;;;;8.43;5.53;;;11.20;41.40;;;;;;4977111;28;20030;-76
2021/04/13 11:30:10;;;;;;;7.90;5.50;;;11.50;40.80;;;;;;4977661;28;20038;-76
2021/04/13 11:33:07;;;;;;;11.63;5.07;;;11.80;47.20;;;;;;4973063;28;20626;-77
2021/04/13 11:35:41;;;;;;;6.10;4.43;;;11.80;39.90;;;;;;4994084;28;20038;-80
2021/04/13 11:38:09;;;;;;;8.85;4.95;;;11.40;40.50;;;;;;4979942;28;20037;-77
2021/04/13 11:40:38;;;;;;;9.15;4.70;;;11.00;40.20;;;;;;4979986;28;20022;-77
2021/04/13 11:43:06;;;;;;;6.70;4.32;;;11.30;44.00;;;;;;4977471;28;20050;-79
2021/04/13 11:45:32;;;;;;;7.68;4.63;;;;;;;;;;4975319;28;20416;-79
2021/04/13 11:48:25;;;;;;;6.93;4.90;;;10.80;45.10;;;;;;4978128;28;20073;-77
2021/04/13 11:51:24;;;;;;;12.77;5.45;;;10.60;41.70;;;;;;4973500;28;20396;-77
2021/04/13 11:53:52;;;;;;;30.00;9.52;;;10.90;42.20;;;;;;4974167;28;20085;-76
2021/04/13 11:56:21;;;;;;;7.00;4.38;;;10.80;42.60;;;;;;4973215;28;20030;-80
2021/04/13 11:59:12;;;;;;;6.30;4.30;;;10.80;41.70;;;;;;4995277;28;20061;-76
2021/04/13 12:01:45;;;;;;;7.97;4.35;;;10.70;42.00;;;;;;4979693;28;20041;-79
2021/04/13 12:04:17;;;;;;;6.55;4.47;;;11.00;41.90;;;;;;4991784;28;20077;-78
2021/04/13 12:07:01;;;;;;;7.95;4.05;;;11.30;44.00;;;;;;4976787;28;20481;-79
2021/04/13 12:09:47;;;;;;;6.63;4.35;;;11.20;39.40;;;;;;4977990;28;20038;-79
2021/04/13 12:12:32;;;;;;;5.30;3.70;;;11.10;39.50;;;;;;4976512;28;20121;-78
2021/04/13 12:14:58;;;;;;;6.18;3.33;;;11.30;39.60;;;;;;4991753;28;20025;-76
2021/04/13 12:17:40;;;;;;;5.28;2.60;;;11.30;38.30;;;;;;4979174;28;20030;-77
2021/04/13 12:20:37;;;;;;;4.55;3.10;;;11.50;37.10;;;;;;4978702;28;20034;-78
2021/04/13 12:23:23;;;;;;;5.85;3.53;;;11.60;37.90;;;;;;4990180;28;20045;-75
2021/04/13 12:25:57;;;;;;;5.63;3.20;;;11.70;37.70;;;;;;4980850;28;20038;-77
2021/04/13 12:28:29;;;;;;;6.82;3.42;;;11.90;38.50;;;;;;4977639;28;20038;-76
2021/04/13 12:31:04;;;;;;;5.05;3.05;;;11.90;38.90;;;;;;4998242;28;20988;-76
2021/04/13 12:33:29;;;;;;;5.07;3.00;;;11.80;39.30;;;;;;4988014;28;20364;-77
2021/04/13 12:36:07;;;;;;;3.72;2.60;;;11.80;39.50;;;;;;4985482;28;20031;-77
2021/04/13 12:38:45;;;;;;;5.93;3.53;;;11.70;39.90;;;;;;4982924;28;20026;-77
2021/04/13 12:41:17;;;;;;;5.07;3.17;;;11.40;40.30;;;;;;4985814;28;20073;-77
2021/04/13 12:43:45;;;;;;;3.88;2.75;;;11.10;40.80;;;;;;4985294;28;20034;-77
2021/04/13 12:46:32;;;;;;;4.72;3.03;;;10.90;41.30;;;;;;4983936;28;20037;-76
2021/04/13 12:49:12;;;;;;;4.68;3.28;;;10.90;40.60;;;;;;4981357;28;20081;-74
2021/04/13 12:51:49;;;;;;;5.80;3.38;;;10.80;40.90;;;;;;4991647;28;20030;-74
2021/04/13 12:54:36;;;;;;;4.22;2.90;;;11.10;39.20;;;;;;4996354;28;20121;-80
2021/04/13 12:57:13;;;;;;;4.78;2.13;;;11.10;38.60;;;;;;4979428;28;20232;-80
2021/04/13 12:59:40;;;;;;;2.83;1.90;;;10.90;37.70;;;;;;4976285;28;20753;-80
2021/04/13 13:02:08;;;;;;;5.13;1.90;;;10.70;37.90;;;;;;4981509;28;20057;-77
2021/04/13 13:04:37;;;;;;;3.78;2.17;;;10.60;37.00;;;;;;4975264;28;20045;-78
2021/04/13 13:07:05;;;;;;;3.87;2.00;;;10.50;36.80;;;;;;4982031;28;20151;-78
2021/04/13 13:09:39;;;;;;;3.33;2.08;;;10.70;37.50;;;;;;4980080;28;20213;-77
2021/04/13 13:12:16;;;;;;;2.63;1.73;;;10.60;37.40;;;;;;4979394;28;20049;-76
2021/04/13 13:14:44;;;;;;;4.97;2.38;;;11.10;36.70;;;;;;4991534;28;20034;-77
2021/04/13 13:17:17;;;;;;;3.50;2.30;;;11.20;38.20;;;;;;4977207;28;20050;-76
2021/04/13 13:19:50;;;;;;;4.22;2.30;;;11.20;38.60;;;;;;4981860;28;20450;-77
2021/04/13 13:22:25;;;;;;;3.83;1.95;;;11.10;39.10;;;;;;4972374;28;20104;-79
2021/04/13 13:24:53;;;;;;;4.85;2.10;;;10.80;39.10;;;;;;4974668;28;20034;-75
2021/04/13 13:27:24;;;;;;;4.10;1.98;;;10.70;39.90;;;;;;4977667;28;20031;-77
2021/04/13 13:29:53;;;;;;;2.92;1.77;;;;;;;;;;4981615;28;20037;-77
2021/04/13 13:32:21;;;;;;;2.47;1.70;;;10.60;39.30;;;;;;4977141;28;20045;-76
2021/04/13 13:34:49;;;;;;;2.80;1.52;;;12.90;41.00;;;;;;4973345;28;20440;-77
2021/04/13 13:37:16;;;;;;;6.68;1.95;;;11.00;39.50;;;;;;4969251;28;20026;-76
2021/04/13 13:39:44;;;;;;;5.50;2.08;;;11.30;38.70;;;;;;4975765;28;20503;-77
2021/04/13 13:42:16;;;;;;;4.55;2.50;;;11.50;37.70;;;;;;4977024;28;20446;-77
2021/04/13 13:44:46;;;;;;;4.80;2.33;;;11.60;37.10;;;;;;4978472;28;20034;-77
2021/04/13 13:47:32;;;;;;;3.50;1.63;;;11.50;37.80;;;;;;4991293;28;20078;-75
2021/04/13 13:49:59;;;;;;;4.13;1.77;;;11.40;38.20;;;;;;4972229;28;20070;-75